createdAt,value
2023-04-18T00:02:18.462Z,59.62
2023-04-18T00:06:37.369Z,60.25
2023-04-18T00:10:54.306Z,61.33
2023-04-18T00:15:11.972Z,60.78
2023-04-18T00:19:28.326Z,61.15
2023-04-18T00:23:46.195Z,61.18
2023-04-18T00:28:02.397Z,60.42
2023-04-18T00:32:19.958Z,59.67
2023-04-18T00:36:36.333Z,58.93
2023-04-18T00:40:52.516Z,59.11
2023-04-18T00:45:09.203Z,59.44
2023-04-18T00:49:26.099Z,58.88
2023-04-18T00:53:43.600Z,59.13
2023-04-18T00:57:59.920Z,58.70
2023-04-18T01:02:17.619Z,58.83
2023-04-18T01:06:34.103Z,59.72
2023-04-18T01:10:50.585Z,59.67
2023-04-18T01:15:07.777Z,59.30
2023-04-18T01:19:24.097Z,59.81
2023-04-18T01:23:40.636Z,59.71
2023-04-18T01:27:59.057Z,59.42
2023-04-18T01:32:17.856Z,60.24
2023-04-18T01:36:34.386Z,59.73
2023-04-18T01:40:51.134Z,59.30
2023-04-18T01:45:08.693Z,58.62
2023-04-18T01:49:24.989Z,59.13
2023-04-18T01:53:41.257Z,59.07
2023-04-18T01:57:57.473Z,59.06
2023-04-18T02:02:13.940Z,59.39
2023-04-18T02:06:30.238Z,58.64
2023-04-18T02:10:46.483Z,59.15
2023-04-18T02:15:02.911Z,59.27
2023-04-18T02:19:19.246Z,58.21
2023-04-18T02:23:35.563Z,58.59
2023-04-18T02:27:52.061Z,58.48
2023-04-18T02:32:09.387Z,58.48
2023-04-18T02:36:27.453Z,58.27
2023-04-18T02:40:43.726Z,59.05
2023-04-18T02:44:59.978Z,59.45
2023-04-18T02:49:16.419Z,58.77
2023-04-18T02:53:32.928Z,58.28
2023-04-18T02:57:49.251Z,57.96
2023-04-18T03:02:05.562Z,58.67
2023-04-18T03:06:21.955Z,58.41
2023-04-18T03:10:38.273Z,58.74
2023-04-18T03:14:54.576Z,58.73
2023-04-18T03:19:11.247Z,57.76
2023-04-18T03:23:27.509Z,58.15
2023-04-18T03:27:43.874Z,57.50
2023-04-18T03:32:00.010Z,58.74
2023-04-18T03:36:21.295Z,58.92
2023-04-18T03:40:37.574Z,58.41
2023-04-18T03:44:53.845Z,58.02
2023-04-18T03:49:10.117Z,58.01
2023-04-18T03:53:26.318Z,57.90
2023-04-18T03:57:42.541Z,58.25
2023-04-18T04:01:58.987Z,58.93
2023-04-18T04:06:15.847Z,59.10
2023-04-18T04:10:32.081Z,58.77
2023-04-18T04:14:48.364Z,58.13
2023-04-18T04:19:04.888Z,58.58
2023-04-18T04:23:22.930Z,57.69
2023-04-18T04:27:39.205Z,57.60
2023-04-18T04:31:55.958Z,57.79
2023-04-18T04:36:16.668Z,57.58
2023-04-18T04:40:34.249Z,57.62
2023-04-18T04:44:50.549Z,57.26
2023-04-18T04:49:07.182Z,58.16
2023-04-18T04:53:28.683Z,59.94
2023-04-18T04:57:45.170Z,60.07
2023-04-18T05:02:01.496Z,60.71
2023-04-18T05:06:22.729Z,60.27
2023-04-18T05:10:39.036Z,60.59
2023-04-18T05:14:55.224Z,61.28
2023-04-18T05:19:11.469Z,61.71
2023-04-18T05:23:27.664Z,60.59
2023-04-18T05:27:45.638Z,60.86
2023-04-18T05:32:07.814Z,61.92
2023-04-18T05:36:24.121Z,61.66
2023-04-18T05:40:40.242Z,61.44
2023-04-18T05:44:56.535Z,62.49
2023-04-18T05:49:13.305Z,60.42
2023-04-18T05:53:29.523Z,59.20
2023-04-18T05:57:45.923Z,59.40
2023-04-18T06:02:02.161Z,58.08
2023-04-18T06:06:18.381Z,57.41
2023-04-18T06:10:35.416Z,57.18
2023-04-18T06:14:52.643Z,55.67
2023-04-18T06:19:08.910Z,56.19
2023-04-18T06:23:25.125Z,56.00
2023-04-18T06:27:41.407Z,56.57
2023-04-18T06:31:58.082Z,56.65
2023-04-18T06:36:14.393Z,60.99
2023-04-18T06:40:30.619Z,58.19
2023-04-18T06:44:46.887Z,56.01
2023-04-18T06:49:03.270Z,54.61
2023-04-18T06:53:19.670Z,54.31
2023-04-18T06:57:35.969Z,54.25
2023-04-18T07:01:52.600Z,54.02
2023-04-18T07:06:10.715Z,53.29
2023-04-18T07:10:27.193Z,52.39
2023-04-18T07:14:43.329Z,51.99
2023-04-18T07:18:59.782Z,51.70
2023-04-18T07:23:16.148Z,51.81
2023-04-18T07:27:33.678Z,50.33
2023-04-18T07:31:50.037Z,51.66
2023-04-18T07:36:06.633Z,51.85
2023-04-18T07:40:23.107Z,51.84
2023-04-18T07:44:39.279Z,53.59
2023-04-18T07:48:55.491Z,56.12
2023-04-18T07:53:11.777Z,57.17
2023-04-18T07:57:28.009Z,57.06
2023-04-18T08:01:44.545Z,58.72
2023-04-18T08:06:02.649Z,57.41
2023-04-18T08:10:18.942Z,54.75
2023-04-18T08:14:35.155Z,53.49
2023-04-18T08:18:51.587Z,53.92
2023-04-18T08:23:11.176Z,53.39
2023-04-18T08:27:29.493Z,52.06
2023-04-18T08:31:46.274Z,52.14
2023-04-18T08:36:02.522Z,51.57
2023-04-18T08:40:19.013Z,50.95
2023-04-18T08:44:35.157Z,48.55
2023-04-18T08:48:51.609Z,50.54
2023-04-18T08:53:08.062Z,48.43
2023-04-18T08:57:27.156Z,46.89
2023-04-18T09:01:57.525Z,47.44
2023-04-18T09:06:19.444Z,46.73
2023-04-18T09:10:38.452Z,45.08
2023-04-18T09:14:59.883Z,45.08
2023-04-18T09:19:19.555Z,44.97
2023-04-18T09:23:36.259Z,42.92
2023-04-18T09:27:52.745Z,42.68
2023-04-18T09:32:09.067Z,41.27
2023-04-18T09:36:31.568Z,42.65
2023-04-18T09:40:47.924Z,39.04
2023-04-18T09:45:06.656Z,39.40
2023-04-18T09:49:23.504Z,39.46
2023-04-18T09:53:41.120Z,39.17
2023-04-18T09:57:59.714Z,37.25
2023-04-18T10:02:21.195Z,38.79
2023-04-18T10:06:40.087Z,38.16
2023-04-18T10:10:58.808Z,37.46
2023-04-18T10:15:16.128Z,38.05
2023-04-18T10:19:32.432Z,37.32
2023-04-18T10:23:49.321Z,36.12
2023-04-18T10:28:09.816Z,35.92
2023-04-18T10:32:28.172Z,36.23
2023-04-18T10:37:05.155Z,35.71
2023-04-18T10:41:30.132Z,36.59
2023-04-18T10:46:07.470Z,35.59
2023-04-18T10:50:26.653Z,33.07
2023-04-18T10:54:57.703Z,34.98
2023-04-18T10:59:16.529Z,33.34
2023-04-18T11:03:36.148Z,33.16
2023-04-18T11:07:52.906Z,34.97
2023-04-18T11:12:11.554Z,33.29
2023-04-18T11:16:33.494Z,31.92
2023-04-18T11:20:51.054Z,31.73
2023-04-18T11:25:11.095Z,34.33
2023-04-18T11:29:28.640Z,30.20
2023-04-18T11:33:47.910Z,30.94
2023-04-18T11:38:04.098Z,30.45
2023-04-18T11:42:20.822Z,31.18
2023-04-18T11:46:40.155Z,30.98
2023-04-18T11:50:56.439Z,30.46
2023-04-18T11:55:14.616Z,29.33
2023-04-18T11:59:30.914Z,29.95
2023-04-18T12:04:07.320Z,29.05
2023-04-18T12:08:25.208Z,26.27
2023-04-18T12:12:50.049Z,27.00
2023-04-18T12:17:06.306Z,24.76
2023-04-18T12:21:22.581Z,25.67
2023-04-18T12:25:39.042Z,25.93
2023-04-18T12:29:55.287Z,26.30
2023-04-18T12:34:12.190Z,26.19
2023-04-18T12:38:28.626Z,26.05
2023-04-18T12:42:45.565Z,26.54
2023-04-18T12:47:01.957Z,26.59
2023-04-18T12:51:18.235Z,26.40
2023-04-18T12:55:34.557Z,25.54
2023-04-18T12:59:50.795Z,26.32
2023-04-18T13:04:12.663Z,26.90
2023-04-18T13:08:29.622Z,25.11
2023-04-18T13:12:46.761Z,23.21
2023-04-18T13:17:03.190Z,24.82
2023-04-18T13:21:19.595Z,24.29
2023-04-18T13:25:35.880Z,24.66
2023-04-18T13:29:52.231Z,23.37
2023-04-18T13:34:08.499Z,22.31
2023-04-18T13:38:24.768Z,19.57
2023-04-18T13:42:40.933Z,22.42
2023-04-18T13:46:57.394Z,19.03
2023-04-18T13:51:13.653Z,19.63
2023-04-18T13:55:29.953Z,20.60
2023-04-18T13:59:46.219Z,21.10
2023-04-18T14:04:03.039Z,21.20
2023-04-18T14:08:19.334Z,21.61
2023-04-18T14:12:35.687Z,19.35
2023-04-18T14:16:52.048Z,19.34
2023-04-18T14:21:08.362Z,19.48
2023-04-18T14:25:24.745Z,19.37
2023-04-18T14:29:41.467Z,18.43
2023-04-18T14:33:57.784Z,18.43
2023-04-18T14:38:14.098Z,18.50
2023-04-18T14:42:30.420Z,17.81
2023-04-18T14:46:47.098Z,18.03
2023-04-18T14:51:03.528Z,17.39
2023-04-18T14:55:20.391Z,17.16
2023-04-18T14:59:36.718Z,17.77
2023-04-18T15:03:53.517Z,18.46
2023-04-18T15:08:11.834Z,17.24
2023-04-18T15:12:28.067Z,18.56
2023-04-18T15:16:44.343Z,18.96
2023-04-18T15:21:01.059Z,20.94
2023-04-18T15:25:17.889Z,20.43
2023-04-18T15:29:34.358Z,20.72
2023-04-18T15:33:50.640Z,20.84
2023-04-18T15:38:07.000Z,20.97
2023-04-18T15:42:23.281Z,19.83
2023-04-18T15:46:39.581Z,19.48
2023-04-18T15:50:55.940Z,19.13
2023-04-18T15:55:13.440Z,20.45
2023-04-18T15:59:30.881Z,19.09
2023-04-18T16:03:47.243Z,20.87
2023-04-18T16:08:03.639Z,21.63
2023-04-18T16:12:19.873Z,21.74
2023-04-18T16:16:36.445Z,23.42
2023-04-18T16:20:52.692Z,23.37
2023-04-18T16:25:09.541Z,24.34
2023-04-18T16:29:25.814Z,25.43
2023-04-18T16:33:42.569Z,26.16
2023-04-18T16:37:58.777Z,25.57
2023-04-18T16:42:15.787Z,26.14
2023-04-18T16:46:32.492Z,27.40
2023-04-18T16:50:49.155Z,28.25
2023-04-18T16:55:05.783Z,28.12
2023-04-18T16:59:22.072Z,28.73
2023-04-18T17:03:38.440Z,28.69
2023-04-18T17:07:56.173Z,28.63
2023-04-18T17:12:12.422Z,29.67
2023-04-18T17:16:28.677Z,28.85
2023-04-18T17:20:44.927Z,29.57
2023-04-18T17:25:02.060Z,29.15
2023-04-18T17:29:18.781Z,29.46
2023-04-18T17:33:35.069Z,28.92
2023-04-18T17:37:53.149Z,29.59
2023-04-18T17:42:09.688Z,29.64
2023-04-18T17:46:26.225Z,31.21
2023-04-18T17:50:42.607Z,31.25
2023-04-18T17:54:59.967Z,32.39
2023-04-18T17:59:16.762Z,32.30
2023-04-18T18:03:33.583Z,32.58
2023-04-18T18:07:50.191Z,33.79
2023-04-18T18:12:07.592Z,34.72
2023-04-18T18:16:24.603Z,35.26
2023-04-18T18:20:43.498Z,36.05
2023-04-18T18:24:59.800Z,36.22
2023-04-18T18:29:16.409Z,36.83
2023-04-18T18:33:32.895Z,36.59
2023-04-18T18:37:49.131Z,35.98
2023-04-18T18:42:05.592Z,35.37
2023-04-18T18:46:21.920Z,34.32
2023-04-18T18:50:43.210Z,32.81
2023-04-18T18:55:01.408Z,31.87
2023-04-18T18:59:18.201Z,32.01
2023-04-18T19:03:35.054Z,31.00
2023-04-18T19:07:51.693Z,32.06
2023-04-18T19:12:13.267Z,32.04
2023-04-18T19:16:30.711Z,31.43
2023-04-18T19:20:47.469Z,31.18
2023-04-18T19:25:05.089Z,31.26
2023-04-18T19:29:22.476Z,31.66
2023-04-18T19:33:38.951Z,31.74
2023-04-18T19:38:01.676Z,30.90
2023-04-18T19:42:18.390Z,30.67
2023-04-18T19:46:34.675Z,31.69
2023-04-18T19:50:51.360Z,31.38
2023-04-18T19:55:08.038Z,32.04
2023-04-18T19:59:24.213Z,32.59
2023-04-18T20:03:41.018Z,31.96
2023-04-18T20:07:57.842Z,31.79
2023-04-18T20:12:14.188Z,31.95
2023-04-18T20:16:31.302Z,32.49
2023-04-18T20:20:47.642Z,32.42
2023-04-18T20:25:03.831Z,32.40
2023-04-18T20:29:20.060Z,32.28
2023-04-18T20:33:38.062Z,32.49
2023-04-18T20:37:55.072Z,32.71
2023-04-18T20:42:14.811Z,32.60
2023-04-18T20:46:32.434Z,32.45
2023-04-18T20:50:51.789Z,32.67
2023-04-18T20:55:08.688Z,32.89
2023-04-18T20:59:24.941Z,33.12
2023-04-18T21:03:41.437Z,32.45
2023-04-18T21:07:59.823Z,32.52
2023-04-18T21:12:16.148Z,32.43
2023-04-18T21:16:32.742Z,32.17
2023-04-18T21:20:49.259Z,32.17
2023-04-18T21:25:05.984Z,32.59
2023-04-18T21:29:22.219Z,32.52
2023-04-18T21:33:38.443Z,32.27
2023-04-18T21:37:54.713Z,33.26
2023-04-18T21:42:11.558Z,32.87
2023-04-18T21:46:27.886Z,32.86
2023-04-18T21:50:44.222Z,33.00
2023-04-18T21:55:00.772Z,34.14
2023-04-18T21:59:16.984Z,33.19
2023-04-18T22:03:34.418Z,33.69
2023-04-18T22:07:58.164Z,33.32
2023-04-18T22:12:15.787Z,33.76
2023-04-18T22:16:33.705Z,33.56
2023-04-18T22:20:50.012Z,34.38
2023-04-18T22:25:07.590Z,35.82
2023-04-18T22:29:23.738Z,36.42
2023-04-18T22:33:39.996Z,36.39
2023-04-18T22:37:56.685Z,36.89
2023-04-18T22:42:12.903Z,36.56
2023-04-18T22:46:29.221Z,37.65
2023-04-18T22:50:46.464Z,37.18
2023-04-18T22:55:03.613Z,37.46
2023-04-18T22:59:19.843Z,38.68
2023-04-18T23:03:36.589Z,38.42
2023-04-18T23:07:52.888Z,38.93
2023-04-18T23:12:09.221Z,38.66
2023-04-18T23:16:25.649Z,38.26
2023-04-18T23:20:41.925Z,38.83
2023-04-18T23:24:58.246Z,40.16
2023-04-18T23:29:14.478Z,39.42
2023-04-18T23:33:30.837Z,39.04
2023-04-18T23:37:47.186Z,37.61
2023-04-18T23:42:03.384Z,37.72
2023-04-18T23:46:19.683Z,39.11
2023-04-18T23:50:37.290Z,40.05
2023-04-18T23:54:53.709Z,41.64
2023-04-18T23:59:10.023Z,43.29
